sensor_id;sensor_type;location;lat;lon;timestamp;temperature;humidity
5556;DHT22;2801;50.972;7.856;2024-03-08T00:00:07;-0.60;99.90
5556;DHT22;2801;50.972;7.856;2024-03-08T00:02:36;-0.60;99.90
5556;DHT22;2801;50.972;7.856;2024-03-08T00:05:05;-0.60;99.90
5556;DHT22;2801;50.972;7.856;2024-03-08T00:07:33;-0.70;99.90
5556;DHT22;2801;50.972;7.856;2024-03-08T00:10:00;-0.70;99.90
5556;DHT22;2801;50.972;7.856;2024-03-08T00:12:27;-0.80;99.90
5556;DHT22;2801;50.972;7.856;2024-03-08T00:14:54;-0.70;99.90
5556;DHT22;2801;50.972;7.856;2024-03-08T00:17:21;-0.80;99.90
5556;DHT22;2801;50.972;7.856;2024-03-08T00:19:51;-0.80;99.90
5556;DHT22;2801;50.972;7.856;2024-03-08T00:22:19;-0.80;99.90
5556;DHT22;2801;50.972;7.856;2024-03-08T00:24:46;-0.90;99.90
5556;DHT22;2801;50.972;7.856;2024-03-08T00:27:13;-1.00;99.90
5556;DHT22;2801;50.972;7.856;2024-03-08T00:29:39;-1.00;99.90
5556;DHT22;2801;50.972;7.856;2024-03-08T00:32:06;-1.00;99.90
5556;DHT22;2801;50.972;7.856;2024-03-08T00:34:37;-1.00;99.90
5556;DHT22;2801;50.972;7.856;2024-03-08T00:37:04;-1.10;99.90
5556;DHT22;2801;50.972;7.856;2024-03-08T00:39:31;-1.10;99.90
5556;DHT22;2801;50.972;7.856;2024-03-08T00:41:59;-1.10;99.90
5556;DHT22;2801;50.972;7.856;2024-03-08T00:44:26;-1.10;99.90
5556;DHT22;2801;50.972;7.856;2024-03-08T00:46:53;-1.10;99.90
5556;DHT22;2801;50.972;7.856;2024-03-08T00:49:21;-1.10;99.90
5556;DHT22;2801;50.972;7.856;2024-03-08T00:51:49;-1.10;99.90
5556;DHT22;2801;50.972;7.856;2024-03-08T00:54:16;-1.00;99.90
5556;DHT22;2801;50.972;7.856;2024-03-08T00:56:43;-1.10;99.90
5556;DHT22;2801;50.972;7.856;2024-03-08T00:59:10;-1.00;99.90
5556;DHT22;2801;50.972;7.856;2024-03-08T01:01:37;-1.10;99.90
5556;DHT22;2801;50.972;7.856;2024-03-08T01:04:04;-1.00;99.90
5556;DHT22;2801;50.972;7.856;2024-03-08T01:06:31;-0.90;99.90
5556;DHT22;2801;50.972;7.856;2024-03-08T01:08:58;-0.90;99.90
5556;DHT22;2801;50.972;7.856;2024-03-08T01:11:25;-0.70;99.90
5556;DHT22;2801;50.972;7.856;2024-03-08T01:13:54;-0.70;99.90
5556;DHT22;2801;50.972;7.856;2024-03-08T01:16:21;-0.80;99.90
5556;DHT22;2801;50.972;7.856;2024-03-08T01:18:48;-0.70;99.90
5556;DHT22;2801;50.972;7.856;2024-03-08T01:21:15;-0.70;99.90
5556;DHT22;2801;50.972;7.856;2024-03-08T01:23:42;-0.60;99.90
5556;DHT22;2801;50.972;7.856;2024-03-08T01:26:09;-0.60;99.90
5556;DHT22;2801;50.972;7.856;2024-03-08T01:28:36;-0.60;99.90
5556;DHT22;2801;50.972;7.856;2024-03-08T01:31:03;-0.50;99.90
5556;DHT22;2801;50.972;7.856;2024-03-08T01:33:31;-0.60;99.90
5556;DHT22;2801;50.972;7.856;2024-03-08T01:35:58;-0.40;99.90
5556;DHT22;2801;50.972;7.856;2024-03-08T01:38:25;-0.50;99.90
5556;DHT22;2801;50.972;7.856;2024-03-08T01:40:52;-0.40;99.90
5556;DHT22;2801;50.972;7.856;2024-03-08T01:43:20;-0.50;99.90
5556;DHT22;2801;50.972;7.856;2024-03-08T01:45:48;-0.40;99.90
5556;DHT22;2801;50.972;7.856;2024-03-08T01:48:16;-0.40;99.90
5556;DHT22;2801;50.972;7.856;2024-03-08T01:50:45;-0.40;99.90
5556;DHT22;2801;50.972;7.856;2024-03-08T01:53:13;-0.50;99.90
5556;DHT22;2801;50.972;7.856;2024-03-08T01:55:42;-0.60;99.90
5556;DHT22;2801;50.972;7.856;2024-03-08T01:58:13;-0.50;99.90
5556;DHT22;2801;50.972;7.856;2024-03-08T02:00:44;-0.60;99.90
5556;DHT22;2801;50.972;7.856;2024-03-08T02:03:18;-0.60;99.90
5556;DHT22;2801;50.972;7.856;2024-03-08T02:05:45;-0.60;99.90
5556;DHT22;2801;50.972;7.856;2024-03-08T02:08:12;-0.70;99.90
5556;DHT22;2801;50.972;7.856;2024-03-08T02:10:43;-0.70;99.90
5556;DHT22;2801;50.972;7.856;2024-03-08T02:13:11;-0.80;99.90
5556;DHT22;2801;50.972;7.856;2024-03-08T02:15:55;-0.70;99.90
5556;DHT22;2801;50.972;7.856;2024-03-08T02:18:23;-0.80;99.90
5556;DHT22;2801;50.972;7.856;2024-03-08T02:20:58;-0.80;99.90
5556;DHT22;2801;50.972;7.856;2024-03-08T02:23:26;-0.80;99.90
5556;DHT22;2801;50.972;7.856;2024-03-08T02:25:56;-0.80;99.90
5556;DHT22;2801;50.972;7.856;2024-03-08T02:28:24;-0.70;99.90
5556;DHT22;2801;50.972;7.856;2024-03-08T02:30:55;-0.70;99.90
5556;DHT22;2801;50.972;7.856;2024-03-08T02:33:26;-0.60;99.90
5556;DHT22;2801;50.972;7.856;2024-03-08T02:35:54;-0.60;99.90
5556;DHT22;2801;50.972;7.856;2024-03-08T02:38:23;-0.60;99.90
5556;DHT22;2801;50.972;7.856;2024-03-08T02:40:52;-0.60;99.90
5556;DHT22;2801;50.972;7.856;2024-03-08T02:43:21;-0.60;99.90
5556;DHT22;2801;50.972;7.856;2024-03-08T02:45:49;-0.40;99.90
5556;DHT22;2801;50.972;7.856;2024-03-08T02:48:16;-0.70;99.90
5556;DHT22;2801;50.972;7.856;2024-03-08T02:50:44;-0.50;99.90
5556;DHT22;2801;50.972;7.856;2024-03-08T02:53:13;-0.60;99.90
5556;DHT22;2801;50.972;7.856;2024-03-08T02:55:41;-0.50;99.90
5556;DHT22;2801;50.972;7.856;2024-03-08T02:58:09;-0.60;99.90
5556;DHT22;2801;50.972;7.856;2024-03-08T03:00:39;-0.50;99.90
5556;DHT22;2801;50.972;7.856;2024-03-08T03:03:07;-0.50;99.90
5556;DHT22;2801;50.972;7.856;2024-03-08T03:05:35;-0.60;99.90
5556;DHT22;2801;50.972;7.856;2024-03-08T03:08:02;-0.60;99.90
5556;DHT22;2801;50.972;7.856;2024-03-08T03:10:36;-0.50;99.90
5556;DHT22;2801;50.972;7.856;2024-03-08T03:13:04;-0.60;99.90
5556;DHT22;2801;50.972;7.856;2024-03-08T03:15:31;-0.40;99.90
5556;DHT22;2801;50.972;7.856;2024-03-08T03:18:00;-0.40;99.90
5556;DHT22;2801;50.972;7.856;2024-03-08T03:20:28;-0.40;99.90
5556;DHT22;2801;50.972;7.856;2024-03-08T03:23:07;-0.30;99.90
5556;DHT22;2801;50.972;7.856;2024-03-08T03:25:35;-0.30;99.90
5556;DHT22;2801;50.972;7.856;2024-03-08T03:28:05;-0.20;99.90
5556;DHT22;2801;50.972;7.856;2024-03-08T03:30:34;-0.30;99.90
5556;DHT22;2801;50.972;7.856;2024-03-08T03:33:02;-0.40;99.90
5556;DHT22;2801;50.972;7.856;2024-03-08T03:35:34;-0.30;99.90
5556;DHT22;2801;50.972;7.856;2024-03-08T03:38:03;-0.30;99.90
5556;DHT22;2801;50.972;7.856;2024-03-08T03:40:36;-0.40;99.90
5556;DHT22;2801;50.972;7.856;2024-03-08T03:43:04;-0.50;99.90
5556;DHT22;2801;50.972;7.856;2024-03-08T03:45:31;-0.60;99.90
5556;DHT22;2801;50.972;7.856;2024-03-08T03:48:07;-0.70;99.90
5556;DHT22;2801;50.972;7.856;2024-03-08T03:50:38;-0.70;99.90
5556;DHT22;2801;50.972;7.856;2024-03-08T03:53:07;-0.80;99.90
5556;DHT22;2801;50.972;7.856;2024-03-08T03:55:35;-0.70;99.90
5556;DHT22;2801;50.972;7.856;2024-03-08T03:58:03;-0.80;99.90
5556;DHT22;2801;50.972;7.856;2024-03-08T04:00:30;-0.90;99.90
5556;DHT22;2801;50.972;7.856;2024-03-08T04:02:58;-0.80;99.90
5556;DHT22;2801;50.972;7.856;2024-03-08T04:05:27;-0.80;99.90
5556;DHT22;2801;50.972;7.856;2024-03-08T04:07:54;-1.00;99.90
5556;DHT22;2801;50.972;7.856;2024-03-08T04:10:21;-0.90;99.90
5556;DHT22;2801;50.972;7.856;2024-03-08T04:12:49;-1.10;99.90
5556;DHT22;2801;50.972;7.856;2024-03-08T04:15:16;-1.10;99.90
5556;DHT22;2801;50.972;7.856;2024-03-08T04:17:43;-1.20;99.90
5556;DHT22;2801;50.972;7.856;2024-03-08T04:20:12;-1.20;99.90
5556;DHT22;2801;50.972;7.856;2024-03-08T04:22:41;-1.20;99.90
5556;DHT22;2801;50.972;7.856;2024-03-08T04:25:11;-1.10;99.90
5556;DHT22;2801;50.972;7.856;2024-03-08T04:27:38;-1.40;99.90
5556;DHT22;2801;50.972;7.856;2024-03-08T04:30:05;-1.50;99.90
5556;DHT22;2801;50.972;7.856;2024-03-08T04:32:35;-1.60;99.90
5556;DHT22;2801;50.972;7.856;2024-03-08T04:35:02;-1.50;99.90
5556;DHT22;2801;50.972;7.856;2024-03-08T04:37:30;-1.50;99.90
5556;DHT22;2801;50.972;7.856;2024-03-08T04:39:58;-1.60;99.90
5556;DHT22;2801;50.972;7.856;2024-03-08T04:42:27;-1.70;99.90
5556;DHT22;2801;50.972;7.856;2024-03-08T04:44:56;-1.70;99.90
5556;DHT22;2801;50.972;7.856;2024-03-08T04:47:29;-1.80;99.90
5556;DHT22;2801;50.972;7.856;2024-03-08T04:49:56;-1.90;99.90
5556;DHT22;2801;50.972;7.856;2024-03-08T04:52:23;-2.00;99.90
5556;DHT22;2801;50.972;7.856;2024-03-08T04:54:50;-2.00;99.90
5556;DHT22;2801;50.972;7.856;2024-03-08T04:57:17;-2.10;99.90
5556;DHT22;2801;50.972;7.856;2024-03-08T04:59:47;-2.10;99.90
5556;DHT22;2801;50.972;7.856;2024-03-08T05:02:14;-2.10;99.90
5556;DHT22;2801;50.972;7.856;2024-03-08T05:04:41;-2.10;99.90
5556;DHT22;2801;50.972;7.856;2024-03-08T05:07:09;-2.00;99.90
5556;DHT22;2801;50.972;7.856;2024-03-08T05:09:36;-2.20;99.90
5556;DHT22;2801;50.972;7.856;2024-03-08T05:12:04;-2.40;99.90
5556;DHT22;2801;50.972;7.856;2024-03-08T05:14:31;-2.30;99.90
5556;DHT22;2801;50.972;7.856;2024-03-08T05:16:58;-2.40;99.90
5556;DHT22;2801;50.972;7.856;2024-03-08T05:19:27;-2.40;99.90
5556;DHT22;2801;50.972;7.856;2024-03-08T05:22:00;-2.40;99.90
5556;DHT22;2801;50.972;7.856;2024-03-08T05:24:27;-2.30;99.90
5556;DHT22;2801;50.972;7.856;2024-03-08T05:26:54;-2.40;99.90
5556;DHT22;2801;50.972;7.856;2024-03-08T05:29:21;-2.50;99.90
5556;DHT22;2801;50.972;7.856;2024-03-08T05:31:50;-2.40;99.90
5556;DHT22;2801;50.972;7.856;2024-03-08T05:34:21;-2.60;99.90
5556;DHT22;2801;50.972;7.856;2024-03-08T05:36:49;-2.70;99.90
5556;DHT22;2801;50.972;7.856;2024-03-08T05:39:18;-2.60;99.90
5556;DHT22;2801;50.972;7.856;2024-03-08T05:41:47;-2.90;99.90
5556;DHT22;2801;50.972;7.856;2024-03-08T05:44:14;-2.80;99.90
5556;DHT22;2801;50.972;7.856;2024-03-08T05:46:44;-2.80;99.90
5556;DHT22;2801;50.972;7.856;2024-03-08T05:49:13;-2.90;99.90
5556;DHT22;2801;50.972;7.856;2024-03-08T05:51:41;-2.90;99.90
5556;DHT22;2801;50.972;7.856;2024-03-08T05:54:10;-2.90;99.90
5556;DHT22;2801;50.972;7.856;2024-03-08T05:56:42;-2.70;99.90
5556;DHT22;2801;50.972;7.856;2024-03-08T05:59:11;-2.70;99.90
5556;DHT22;2801;50.972;7.856;2024-03-08T06:01:38;-2.70;99.90
5556;DHT22;2801;50.972;7.856;2024-03-08T06:04:08;-2.70;99.90
5556;DHT22;2801;50.972;7.856;2024-03-08T06:06:35;-2.80;99.90
5556;DHT22;2801;50.972;7.856;2024-03-08T06:09:04;-2.70;99.90
5556;DHT22;2801;50.972;7.856;2024-03-08T06:11:38;-2.90;99.90
5556;DHT22;2801;50.972;7.856;2024-03-08T06:14:06;-2.70;99.90
5556;DHT22;2801;50.972;7.856;2024-03-08T06:16:33;-2.80;99.90
5556;DHT22;2801;50.972;7.856;2024-03-08T06:19:02;-2.80;99.90
5556;DHT22;2801;50.972;7.856;2024-03-08T06:21:30;-2.60;99.90
5556;DHT22;2801;50.972;7.856;2024-03-08T06:23:56;-2.70;99.90
5556;DHT22;2801;50.972;7.856;2024-03-08T06:26:25;-2.70;99.90
5556;DHT22;2801;50.972;7.856;2024-03-08T06:28:57;-2.70;99.90
5556;DHT22;2801;50.972;7.856;2024-03-08T06:31:24;-2.50;99.90
5556;DHT22;2801;50.972;7.856;2024-03-08T06:33:51;-2.50;99.90
5556;DHT22;2801;50.972;7.856;2024-03-08T06:36:22;-2.40;99.90
5556;DHT22;2801;50.972;7.856;2024-03-08T06:38:49;-2.40;99.90
5556;DHT22;2801;50.972;7.856;2024-03-08T06:41:17;-2.30;99.90
5556;DHT22;2801;50.972;7.856;2024-03-08T06:43:47;-2.10;99.90
5556;DHT22;2801;50.972;7.856;2024-03-08T06:46:15;-1.90;99.90
5556;DHT22;2801;50.972;7.856;2024-03-08T06:48:43;-1.80;99.90
5556;DHT22;2801;50.972;7.856;2024-03-08T06:51:10;-1.40;99.90
5556;DHT22;2801;50.972;7.856;2024-03-08T06:53:38;-0.90;99.90
5556;DHT22;2801;50.972;7.856;2024-03-08T06:56:06;-0.50;99.90
5556;DHT22;2801;50.972;7.856;2024-03-08T06:58:34;0.00;99.90
5556;DHT22;2801;50.972;7.856;2024-03-08T07:01:02;0.40;99.90
5556;DHT22;2801;50.972;7.856;2024-03-08T07:03:31;0.80;99.90
5556;DHT22;2801;50.972;7.856;2024-03-08T07:05:59;1.10;99.90
5556;DHT22;2801;50.972;7.856;2024-03-08T07:08:28;1.50;99.90
5556;DHT22;2801;50.972;7.856;2024-03-08T07:10:56;1.90;99.90
5556;DHT22;2801;50.972;7.856;2024-03-08T07:13:26;2.40;99.90
5556;DHT22;2801;50.972;7.856;2024-03-08T07:15:56;2.70;99.90
5556;DHT22;2801;50.972;7.856;2024-03-08T07:18:25;3.30;99.90
5556;DHT22;2801;50.972;7.856;2024-03-08T07:20:57;3.60;99.90
5556;DHT22;2801;50.972;7.856;2024-03-08T07:23:24;3.70;99.90
5556;DHT22;2801;50.972;7.856;2024-03-08T07:26:10;4.00;99.90
5556;DHT22;2801;50.972;7.856;2024-03-08T07:28:36;4.30;99.90
5556;DHT22;2801;50.972;7.856;2024-03-08T07:31:03;4.50;99.90
5556;DHT22;2801;50.972;7.856;2024-03-08T07:33:44;4.80;99.90
5556;DHT22;2801;50.972;7.856;2024-03-08T07:36:11;5.20;99.90
5556;DHT22;2801;50.972;7.856;2024-03-08T07:38:39;5.40;99.90
5556;DHT22;2801;50.972;7.856;2024-03-08T07:41:06;5.30;99.90
5556;DHT22;2801;50.972;7.856;2024-03-08T07:43:32;5.20;99.90
5556;DHT22;2801;50.972;7.856;2024-03-08T07:46:00;5.30;99.90
5556;DHT22;2801;50.972;7.856;2024-03-08T07:48:27;5.80;99.90
5556;DHT22;2801;50.972;7.856;2024-03-08T07:50:54;6.30;99.90
5556;DHT22;2801;50.972;7.856;2024-03-08T07:53:22;6.40;99.90
5556;DHT22;2801;50.972;7.856;2024-03-08T07:55:51;5.90;99.90
5556;DHT22;2801;50.972;7.856;2024-03-08T07:58:18;5.80;99.90
5556;DHT22;2801;50.972;7.856;2024-03-08T08:00:45;5.40;99.90
5556;DHT22;2801;50.972;7.856;2024-03-08T08:03:12;5.30;99.90
5556;DHT22;2801;50.972;7.856;2024-03-08T08:05:40;5.70;99.90
5556;DHT22;2801;50.972;7.856;2024-03-08T08:08:09;6.20;99.90
5556;DHT22;2801;50.972;7.856;2024-03-08T08:10:38;6.30;99.90
5556;DHT22;2801;50.972;7.856;2024-03-08T08:13:05;6.10;99.90
5556;DHT22;2801;50.972;7.856;2024-03-08T08:15:32;6.20;99.90
5556;DHT22;2801;50.972;7.856;2024-03-08T08:18:02;5.90;99.90
5556;DHT22;2801;50.972;7.856;2024-03-08T08:20:33;5.80;99.90
5556;DHT22;2801;50.972;7.856;2024-03-08T08:22:59;5.40;99.90
5556;DHT22;2801;50.972;7.856;2024-03-08T08:25:26;5.30;99.90
5556;DHT22;2801;50.972;7.856;2024-03-08T08:27:53;5.10;99.90
5556;DHT22;2801;50.972;7.856;2024-03-08T08:30:20;5.20;99.90
5556;DHT22;2801;50.972;7.856;2024-03-08T08:32:47;5.70;99.90
5556;DHT22;2801;50.972;7.856;2024-03-08T08:35:18;6.00;99.90
5556;DHT22;2801;50.972;7.856;2024-03-08T08:37:46;6.50;99.90
5556;DHT22;2801;50.972;7.856;2024-03-08T08:40:13;6.40;99.90
5556;DHT22;2801;50.972;7.856;2024-03-08T08:42:46;6.10;99.90
5556;DHT22;2801;50.972;7.856;2024-03-08T08:45:16;6.00;99.90
5556;DHT22;2801;50.972;7.856;2024-03-08T08:47:50;6.20;99.90
5556;DHT22;2801;50.972;7.856;2024-03-08T08:50:17;6.20;99.90
5556;DHT22;2801;50.972;7.856;2024-03-08T08:52:50;6.20;99.90
5556;DHT22;2801;50.972;7.856;2024-03-08T08:55:18;6.20;99.90
5556;DHT22;2801;50.972;7.856;2024-03-08T08:57:48;6.70;99.90
5556;DHT22;2801;50.972;7.856;2024-03-08T09:00:16;7.20;99.90
5556;DHT22;2801;50.972;7.856;2024-03-08T09:02:43;7.60;99.90
5556;DHT22;2801;50.972;7.856;2024-03-08T09:05:11;8.30;99.90
5556;DHT22;2801;50.972;7.856;2024-03-08T09:07:39;8.70;99.90
5556;DHT22;2801;50.972;7.856;2024-03-08T09:10:06;9.00;99.90
5556;DHT22;2801;50.972;7.856;2024-03-08T09:12:39;9.20;99.90
5556;DHT22;2801;50.972;7.856;2024-03-08T09:15:07;9.30;99.90
5556;DHT22;2801;50.972;7.856;2024-03-08T09:17:41;9.40;99.90
5556;DHT22;2801;50.972;7.856;2024-03-08T09:20:09;9.70;99.90
5556;DHT22;2801;50.972;7.856;2024-03-08T09:22:37;9.70;99.90
5556;DHT22;2801;50.972;7.856;2024-03-08T09:25:05;9.90;99.90
5556;DHT22;2801;50.972;7.856;2024-03-08T09:27:34;10.00;99.90
5556;DHT22;2801;50.972;7.856;2024-03-08T09:30:06;10.40;99.90
5556;DHT22;2801;50.972;7.856;2024-03-08T09:32:34;10.60;99.90
5556;DHT22;2801;50.972;7.856;2024-03-08T09:35:19;10.80;99.90
5556;DHT22;2801;50.972;7.856;2024-03-08T09:37:46;11.50;99.90
5556;DHT22;2801;50.972;7.856;2024-03-08T09:40:18;12.00;99.90
5556;DHT22;2801;50.972;7.856;2024-03-08T09:42:48;12.20;99.90
5556;DHT22;2801;50.972;7.856;2024-03-08T09:45:17;12.30;99.90
5556;DHT22;2801;50.972;7.856;2024-03-08T09:47:44;12.30;98.70
5556;DHT22;2801;50.972;7.856;2024-03-08T09:50:12;12.60;99.10
5556;DHT22;2801;50.972;7.856;2024-03-08T09:52:42;12.20;97.60
5556;DHT22;2801;50.972;7.856;2024-03-08T09:55:13;12.20;97.50
5556;DHT22;2801;50.972;7.856;2024-03-08T09:57:41;11.30;96.50
5556;DHT22;2801;50.972;7.856;2024-03-08T10:00:29;10.70;98.00
5556;DHT22;2801;50.972;7.856;2024-03-08T10:03:01;10.10;99.90
5556;DHT22;2801;50.972;7.856;2024-03-08T10:05:30;10.20;99.90
5556;DHT22;2801;50.972;7.856;2024-03-08T10:08:00;10.10;99.20
5556;DHT22;2801;50.972;7.856;2024-03-08T10:10:27;9.80;98.60
5556;DHT22;2801;50.972;7.856;2024-03-08T10:12:55;9.30;99.10
5556;DHT22;2801;50.972;7.856;2024-03-08T10:15:23;9.00;99.90
5556;DHT22;2801;50.972;7.856;2024-03-08T10:17:51;9.10;99.90
5556;DHT22;2801;50.972;7.856;2024-03-08T10:20:20;9.20;99.90
5556;DHT22;2801;50.972;7.856;2024-03-08T10:22:47;9.20;99.90
5556;DHT22;2801;50.972;7.856;2024-03-08T10:25:33;9.10;99.90
5556;DHT22;2801;50.972;7.856;2024-03-08T10:28:03;8.80;99.90
5556;DHT22;2801;50.972;7.856;2024-03-08T10:30:31;8.90;99.90
5556;DHT22;2801;50.972;7.856;2024-03-08T10:32:59;8.90;99.90
5556;DHT22;2801;50.972;7.856;2024-03-08T10:35:26;8.80;99.90
5556;DHT22;2801;50.972;7.856;2024-03-08T10:37:57;9.00;99.90
5556;DHT22;2801;50.972;7.856;2024-03-08T10:40:29;8.90;99.90
5556;DHT22;2801;50.972;7.856;2024-03-08T10:42:58;8.90;99.90
5556;DHT22;2801;50.972;7.856;2024-03-08T10:45:37;8.90;99.90
5556;DHT22;2801;50.972;7.856;2024-03-08T10:48:29;9.00;99.90
5556;DHT22;2801;50.972;7.856;2024-03-08T10:51:06;8.90;99.00
5556;DHT22;2801;50.972;7.856;2024-03-08T10:53:36;9.10;99.50
5556;DHT22;2801;50.972;7.856;2024-03-08T10:56:08;9.80;99.50
5556;DHT22;2801;50.972;7.856;2024-03-08T10:58:37;10.10;98.10
5556;DHT22;2801;50.972;7.856;2024-03-08T11:01:05;10.30;96.10
5556;DHT22;2801;50.972;7.856;2024-03-08T11:03:45;10.20;95.00
5556;DHT22;2801;50.972;7.856;2024-03-08T11:06:29;10.30;95.40
5556;DHT22;2801;50.972;7.856;2024-03-08T11:09:27;10.50;94.50
5556;DHT22;2801;50.972;7.856;2024-03-08T11:12:26;10.90;95.30
5556;DHT22;2801;50.972;7.856;2024-03-08T11:15:00;10.60;94.50
5556;DHT22;2801;50.972;7.856;2024-03-08T11:19:59;9.90;94.60
5556;DHT22;2801;50.972;7.856;2024-03-08T11:22:33;9.80;95.00
5556;DHT22;2801;50.972;7.856;2024-03-08T11:25:04;9.40;96.20
5556;DHT22;2801;50.972;7.856;2024-03-08T11:27:37;9.40;95.50
5556;DHT22;2801;50.972;7.856;2024-03-08T11:30:08;9.60;96.50
5556;DHT22;2801;50.972;7.856;2024-03-08T11:32:45;9.30;96.30
5556;DHT22;2801;50.972;7.856;2024-03-08T11:35:20;9.20;97.00
5556;DHT22;2801;50.972;7.856;2024-03-08T11:37:50;9.10;96.50
5556;DHT22;2801;50.972;7.856;2024-03-08T11:40:18;9.10;96.40
5556;DHT22;2801;50.972;7.856;2024-03-08T11:42:56;8.90;97.50
5556;DHT22;2801;50.972;7.856;2024-03-08T11:45:23;8.70;96.90
5556;DHT22;2801;50.972;7.856;2024-03-08T11:47:51;8.50;97.50
5556;DHT22;2801;50.972;7.856;2024-03-08T11:50:24;8.60;97.70
5556;DHT22;2801;50.972;7.856;2024-03-08T11:52:51;8.50;98.30
5556;DHT22;2801;50.972;7.856;2024-03-08T11:55:18;8.50;97.90
5556;DHT22;2801;50.972;7.856;2024-03-08T11:57:47;8.60;99.30
5556;DHT22;2801;50.972;7.856;2024-03-08T12:00:16;8.50;98.40
5556;DHT22;2801;50.972;7.856;2024-03-08T12:03:06;8.50;98.50
5556;DHT22;2801;50.972;7.856;2024-03-08T12:05:36;8.30;98.40
5556;DHT22;2801;50.972;7.856;2024-03-08T12:08:03;8.30;98.80
5556;DHT22;2801;50.972;7.856;2024-03-08T12:10:33;8.30;99.30
5556;DHT22;2801;50.972;7.856;2024-03-08T12:13:02;8.30;99.60
5556;DHT22;2801;50.972;7.856;2024-03-08T12:15:39;8.20;99.50
5556;DHT22;2801;50.972;7.856;2024-03-08T12:18:06;8.10;99.90
5556;DHT22;2801;50.972;7.856;2024-03-08T12:20:34;8.10;99.90
5556;DHT22;2801;50.972;7.856;2024-03-08T12:23:01;8.00;99.90
5556;DHT22;2801;50.972;7.856;2024-03-08T12:25:33;8.00;99.90
5556;DHT22;2801;50.972;7.856;2024-03-08T12:28:11;8.10;99.90
5556;DHT22;2801;50.972;7.856;2024-03-08T12:30:47;8.20;99.90
5556;DHT22;2801;50.972;7.856;2024-03-08T12:33:15;8.30;99.90
5556;DHT22;2801;50.972;7.856;2024-03-08T12:35:51;8.30;99.90
5556;DHT22;2801;50.972;7.856;2024-03-08T12:38:23;8.50;99.90
5556;DHT22;2801;50.972;7.856;2024-03-08T12:41:00;8.40;99.70
5556;DHT22;2801;50.972;7.856;2024-03-08T12:43:29;8.40;99.90
5556;DHT22;2801;50.972;7.856;2024-03-08T12:45:58;8.50;99.50
5556;DHT22;2801;50.972;7.856;2024-03-08T12:48:26;8.40;99.10
5556;DHT22;2801;50.972;7.856;2024-03-08T12:50:53;8.50;99.90
5556;DHT22;2801;50.972;7.856;2024-03-08T12:53:20;8.50;99.90
5556;DHT22;2801;50.972;7.856;2024-03-08T12:55:49;8.60;99.90
5556;DHT22;2801;50.972;7.856;2024-03-08T12:58:17;8.70;99.90
5556;DHT22;2801;50.972;7.856;2024-03-08T13:00:44;8.70;99.80
5556;DHT22;2801;50.972;7.856;2024-03-08T13:03:11;8.60;99.90
5556;DHT22;2801;50.972;7.856;2024-03-08T13:05:38;8.70;99.90
5556;DHT22;2801;50.972;7.856;2024-03-08T13:08:09;8.70;99.90
5556;DHT22;2801;50.972;7.856;2024-03-08T13:10:40;8.70;99.90
5556;DHT22;2801;50.972;7.856;2024-03-08T13:13:11;8.80;99.70
5556;DHT22;2801;50.972;7.856;2024-03-08T13:15:44;8.70;99.70
5556;DHT22;2801;50.972;7.856;2024-03-08T13:18:12;8.80;99.90
5556;DHT22;2801;50.972;7.856;2024-03-08T13:20:39;8.90;99.90
5556;DHT22;2801;50.972;7.856;2024-03-08T13:23:13;9.00;99.90
5556;DHT22;2801;50.972;7.856;2024-03-08T13:25:41;8.90;98.70
5556;DHT22;2801;50.972;7.856;2024-03-08T13:28:08;8.90;99.20
5556;DHT22;2801;50.972;7.856;2024-03-08T13:30:36;8.90;99.60
5556;DHT22;2801;50.972;7.856;2024-03-08T13:33:03;8.90;99.90
5556;DHT22;2801;50.972;7.856;2024-03-08T13:35:32;8.90;99.80
5556;DHT22;2801;50.972;7.856;2024-03-08T13:37:59;8.70;99.90
5556;DHT22;2801;50.972;7.856;2024-03-08T13:40:29;8.70;99.90
5556;DHT22;2801;50.972;7.856;2024-03-08T13:42:57;8.80;99.70
5556;DHT22;2801;50.972;7.856;2024-03-08T13:45:27;8.70;99.50
5556;DHT22;2801;50.972;7.856;2024-03-08T13:47:54;8.80;99.90
5556;DHT22;2801;50.972;7.856;2024-03-08T13:50:22;8.80;99.90
5556;DHT22;2801;50.972;7.856;2024-03-08T13:52:50;8.80;99.90
5556;DHT22;2801;50.972;7.856;2024-03-08T13:55:21;8.80;99.90
5556;DHT22;2801;50.972;7.856;2024-03-08T13:57:49;8.90;99.90
5556;DHT22;2801;50.972;7.856;2024-03-08T14:00:18;8.90;99.90
5556;DHT22;2801;50.972;7.856;2024-03-08T14:02:49;8.90;99.40
5556;DHT22;2801;50.972;7.856;2024-03-08T14:05:16;8.90;99.90
5556;DHT22;2801;50.972;7.856;2024-03-08T14:07:46;9.00;99.90
5556;DHT22;2801;50.972;7.856;2024-03-08T14:10:16;9.10;99.50
5556;DHT22;2801;50.972;7.856;2024-03-08T14:12:47;9.00;99.50
5556;DHT22;2801;50.972;7.856;2024-03-08T14:15:17;9.10;99.30
5556;DHT22;2801;50.972;7.856;2024-03-08T14:17:44;9.00;99.30
5556;DHT22;2801;50.972;7.856;2024-03-08T14:20:14;9.00;99.50
5556;DHT22;2801;50.972;7.856;2024-03-08T14:22:41;9.10;99.10
5556;DHT22;2801;50.972;7.856;2024-03-08T14:25:08;9.00;99.20
5556;DHT22;2801;50.972;7.856;2024-03-08T14:27:45;9.10;99.90
5556;DHT22;2801;50.972;7.856;2024-03-08T14:30:13;9.10;99.30
5556;DHT22;2801;50.972;7.856;2024-03-08T14:32:44;9.10;99.50
5556;DHT22;2801;50.972;7.856;2024-03-08T14:35:14;9.20;99.60
5556;DHT22;2801;50.972;7.856;2024-03-08T14:37:41;9.20;99.90
5556;DHT22;2801;50.972;7.856;2024-03-08T14:40:10;9.40;99.90
5556;DHT22;2801;50.972;7.856;2024-03-08T14:42:37;9.30;99.70
5556;DHT22;2801;50.972;7.856;2024-03-08T14:45:09;9.40;99.40
5556;DHT22;2801;50.972;7.856;2024-03-08T14:47:36;9.30;99.30
5556;DHT22;2801;50.972;7.856;2024-03-08T14:50:04;9.20;98.40
5556;DHT22;2801;50.972;7.856;2024-03-08T14:52:35;9.10;98.40
5556;DHT22;2801;50.972;7.856;2024-03-08T14:55:03;9.10;99.60
5556;DHT22;2801;50.972;7.856;2024-03-08T14:57:33;9.20;98.50
5556;DHT22;2801;50.972;7.856;2024-03-08T15:00:00;9.20;99.70
5556;DHT22;2801;50.972;7.856;2024-03-08T15:02:32;9.20;99.20
5556;DHT22;2801;50.972;7.856;2024-03-08T15:05:03;9.30;98.80
5556;DHT22;2801;50.972;7.856;2024-03-08T15:07:35;9.20;98.80
5556;DHT22;2801;50.972;7.856;2024-03-08T15:10:02;9.20;99.10
5556;DHT22;2801;50.972;7.856;2024-03-08T15:12:29;9.40;99.60
5556;DHT22;2801;50.972;7.856;2024-03-08T15:14:56;9.30;98.90
5556;DHT22;2801;50.972;7.856;2024-03-08T15:17:23;9.40;98.20
5556;DHT22;2801;50.972;7.856;2024-03-08T15:19:51;9.30;98.70
5556;DHT22;2801;50.972;7.856;2024-03-08T15:22:21;9.20;98.90
5556;DHT22;2801;50.972;7.856;2024-03-08T15:24:47;9.00;98.50
5556;DHT22;2801;50.972;7.856;2024-03-08T15:27:14;9.10;98.90
5556;DHT22;2801;50.972;7.856;2024-03-08T15:29:41;9.00;98.60
5556;DHT22;2801;50.972;7.856;2024-03-08T15:32:12;8.90;99.00
5556;DHT22;2801;50.972;7.856;2024-03-08T15:34:48;8.90;98.70
5556;DHT22;2801;50.972;7.856;2024-03-08T15:37:15;8.90;99.10
5556;DHT22;2801;50.972;7.856;2024-03-08T15:39:44;8.80;98.90
5556;DHT22;2801;50.972;7.856;2024-03-08T15:42:11;8.80;98.80
5556;DHT22;2801;50.972;7.856;2024-03-08T15:44:39;8.70;99.00
5556;DHT22;2801;50.972;7.856;2024-03-08T15:47:08;8.60;99.20
5556;DHT22;2801;50.972;7.856;2024-03-08T15:49:37;8.50;99.30
5556;DHT22;2801;50.972;7.856;2024-03-08T15:52:04;8.50;99.90
5556;DHT22;2801;50.972;7.856;2024-03-08T15:54:32;8.60;99.90
5556;DHT22;2801;50.972;7.856;2024-03-08T15:57:00;8.60;99.90
5556;DHT22;2801;50.972;7.856;2024-03-08T15:59:29;8.70;99.90
5556;DHT22;2801;50.972;7.856;2024-03-08T16:02:00;8.50;99.90
5556;DHT22;2801;50.972;7.856;2024-03-08T16:04:28;8.40;99.90
5556;DHT22;2801;50.972;7.856;2024-03-08T16:06:56;8.30;99.90
5556;DHT22;2801;50.972;7.856;2024-03-08T16:09:23;8.20;99.90
5556;DHT22;2801;50.972;7.856;2024-03-08T16:11:52;8.10;99.90
5556;DHT22;2801;50.972;7.856;2024-03-08T16:14:20;8.10;99.90
5556;DHT22;2801;50.972;7.856;2024-03-08T16:16:47;8.00;99.90
5556;DHT22;2801;50.972;7.856;2024-03-08T16:19:17;7.90;99.90
5556;DHT22;2801;50.972;7.856;2024-03-08T16:21:45;8.00;99.90
5556;DHT22;2801;50.972;7.856;2024-03-08T16:24:11;7.90;99.90